createdAt,value
2023-03-10T00:01:30.828Z,100.00
2023-03-10T00:04:01.858Z,100.00
2023-03-10T00:06:36.057Z,100.00
2023-03-10T00:09:04.669Z,100.00
2023-03-10T00:11:33.011Z,100.00
2023-03-10T00:14:01.336Z,100.00
2023-03-10T00:16:31.021Z,100.00
2023-03-10T00:18:59.474Z,100.00
2023-03-10T00:21:31.252Z,100.00
2023-03-10T00:24:00.531Z,100.00
2023-03-10T00:26:30.154Z,100.00
2023-03-10T00:28:58.679Z,100.00
2023-03-10T00:31:28.440Z,100.00
2023-03-10T00:33:59.098Z,100.00
2023-03-10T00:36:30.742Z,100.00
2023-03-10T00:39:01.464Z,100.00
2023-03-10T00:41:32.744Z,100.00
2023-03-10T00:44:01.962Z,100.00
2023-03-10T00:46:33.265Z,100.00
2023-03-10T00:49:02.198Z,100.00
2023-03-10T00:51:30.683Z,100.00
2023-03-10T00:54:02.267Z,100.00
2023-03-10T00:56:30.820Z,100.00
2023-03-10T00:59:01.065Z,100.00
2023-03-10T01:01:39.985Z,100.00
2023-03-10T01:04:14.695Z,100.00
2023-03-10T01:06:44.703Z,100.00
2023-03-10T01:09:14.138Z,100.00
2023-03-10T01:11:42.734Z,100.00
2023-03-10T01:14:15.278Z,100.00
2023-03-10T01:16:44.342Z,100.00
2023-03-10T01:19:12.719Z,100.00
2023-03-10T01:21:42.078Z,100.00
2023-03-10T01:24:15.723Z,100.00
2023-03-10T01:26:44.061Z,100.00
2023-03-10T01:29:12.526Z,100.00
2023-03-10T01:31:42.238Z,100.00
2023-03-10T01:34:10.793Z,100.00
2023-03-10T01:36:41.675Z,100.00
2023-03-10T01:39:10.050Z,100.00
2023-03-10T01:41:41.260Z,100.00
2023-03-10T01:44:17.435Z,100.00
2023-03-10T01:46:53.487Z,100.00
2023-03-10T01:49:31.310Z,100.00
2023-03-10T01:52:18.311Z,100.00
2023-03-10T01:55:23.882Z,100.00
2023-03-10T01:57:56.623Z,100.00
2023-03-10T02:00:28.396Z,100.00
2023-03-10T02:03:24.651Z,100.00
2023-03-10T02:05:56.602Z,100.00
2023-03-10T02:08:29.778Z,100.00
2023-03-10T02:10:59.534Z,100.00
2023-03-10T02:13:27.864Z,100.00
2023-03-10T02:15:56.430Z,100.00
2023-03-10T02:18:26.132Z,100.00
2023-03-10T02:21:09.239Z,100.00
2023-03-10T02:24:09.765Z,100.00
2023-03-10T02:27:01.614Z,100.00
2023-03-10T02:30:11.338Z,100.00
2023-03-10T02:32:48.470Z,100.00
2023-03-10T02:35:17.511Z,100.00
2023-03-10T02:37:46.232Z,100.00
2023-03-10T02:40:52.744Z,100.00
2023-03-10T02:43:30.000Z,100.00
2023-03-10T02:46:06.708Z,100.00
2023-03-10T02:48:39.012Z,100.00
2023-03-10T02:51:15.466Z,100.00
2023-03-10T02:53:44.038Z,100.00
2023-03-10T02:56:13.022Z,100.00
2023-03-10T02:58:41.740Z,100.00
2023-03-10T03:01:10.562Z,100.00
2023-03-10T03:03:39.900Z,100.00
2023-03-10T03:06:08.920Z,100.00
2023-03-10T03:08:37.302Z,100.00
2023-03-10T03:11:06.848Z,100.00
2023-03-10T03:13:35.255Z,100.00
2023-03-10T03:16:07.587Z,100.00
2023-03-10T03:18:37.367Z,100.00
2023-03-10T03:21:15.780Z,100.00
2023-03-10T03:23:47.148Z,100.00
2023-03-10T03:26:23.648Z,100.00
2023-03-10T03:28:52.426Z,100.00
2023-03-10T03:31:25.298Z,100.00
2023-03-10T03:33:53.671Z,100.00
2023-03-10T03:36:22.070Z,100.00
2023-03-10T03:38:50.439Z,100.00
2023-03-10T03:41:18.896Z,100.00
2023-03-10T03:43:47.260Z,100.00
2023-03-10T03:46:15.656Z,100.00
2023-03-10T03:48:44.015Z,100.00
2023-03-10T03:51:12.338Z,100.00
2023-03-10T03:53:40.737Z,100.00
2023-03-10T03:56:09.295Z,100.00
2023-03-10T03:58:37.615Z,100.00
2023-03-10T04:01:05.946Z,100.00
2023-03-10T04:03:34.402Z,100.00
2023-03-10T04:06:02.814Z,100.00
2023-03-10T04:08:31.127Z,100.00
2023-03-10T04:10:59.480Z,100.00
2023-03-10T04:13:27.830Z,100.00
2023-03-10T04:15:58.996Z,100.00
2023-03-10T04:18:27.435Z,100.00
2023-03-10T04:20:55.763Z,100.00
2023-03-10T04:23:24.138Z,100.00
2023-03-10T04:25:52.621Z,100.00
2023-03-10T04:28:21.163Z,100.00
2023-03-10T04:30:49.537Z,100.00
2023-03-10T04:33:17.884Z,100.00
2023-03-10T04:35:51.362Z,100.00
2023-03-10T04:38:20.161Z,100.00
2023-03-10T04:40:55.324Z,100.00
2023-03-10T04:43:23.670Z,100.00
2023-03-10T04:45:52.044Z,100.00
2023-03-10T04:48:20.465Z,100.00
2023-03-10T04:51:04.195Z,100.00
2023-03-10T04:53:33.812Z,100.00
2023-03-10T04:56:05.796Z,100.00
2023-03-10T04:58:35.115Z,100.00
2023-03-10T05:01:10.070Z,100.00
2023-03-10T05:03:38.804Z,100.00
2023-03-10T05:06:21.271Z,100.00
2023-03-10T05:08:50.593Z,100.00
2023-03-10T05:11:19.598Z,100.00
2023-03-10T05:13:47.985Z,100.00
2023-03-10T05:16:21.921Z,100.00
2023-03-10T05:18:50.600Z,100.00
2023-03-10T05:21:21.623Z,100.00
2023-03-10T05:23:50.204Z,100.00
2023-03-10T05:26:18.769Z,100.00
2023-03-10T05:28:47.101Z,100.00
2023-03-10T05:31:17.139Z,100.00
2023-03-10T05:33:45.543Z,100.00
2023-03-10T05:36:14.945Z,100.00
2023-03-10T05:38:43.356Z,100.00
2023-03-10T05:41:12.301Z,100.00
2023-03-10T05:43:40.744Z,100.00
2023-03-10T05:46:09.573Z,100.00
2023-03-10T05:48:38.266Z,100.00
2023-03-10T05:51:12.609Z,100.00
2023-03-10T05:53:42.298Z,100.00
2023-03-10T05:56:15.525Z,100.00
2023-03-10T05:58:46.876Z,100.00
2023-03-10T06:01:15.233Z,100.00
2023-03-10T06:03:45.084Z,100.00
2023-03-10T06:06:13.761Z,100.00
2023-03-10T06:08:43.071Z,100.00
2023-03-10T06:11:11.692Z,100.00
2023-03-10T06:13:40.033Z,100.00
2023-03-10T06:16:08.444Z,100.00
2023-03-10T06:18:37.055Z,100.00
2023-03-10T06:21:13.028Z,100.00
2023-03-10T06:23:41.839Z,100.00
2023-03-10T06:26:15.200Z,100.00
2023-03-10T06:28:46.401Z,100.00
2023-03-10T06:31:22.746Z,100.00
2023-03-10T06:33:52.158Z,100.00
2023-03-10T06:36:22.639Z,100.00
2023-03-10T06:38:51.080Z,100.00
2023-03-10T06:41:21.215Z,100.00
2023-03-10T06:43:49.629Z,100.00
2023-03-10T06:46:18.198Z,100.00
2023-03-10T06:48:48.061Z,100.00
2023-03-10T06:51:20.954Z,100.00
2023-03-10T06:53:52.839Z,100.00
2023-03-10T06:56:22.683Z,100.00
2023-03-10T06:58:53.505Z,100.00
2023-03-10T07:01:46.415Z,100.00
2023-03-10T07:04:14.762Z,100.00
2023-03-10T07:06:43.105Z,100.00
2023-03-10T07:09:11.494Z,100.00
2023-03-10T07:11:40.249Z,100.00
2023-03-10T07:14:08.618Z,100.00
2023-03-10T07:16:40.565Z,100.00
2023-03-10T07:19:08.994Z,100.00
2023-03-10T07:21:37.307Z,100.00
2023-03-10T07:24:05.826Z,100.00
2023-03-10T07:26:34.280Z,100.00
2023-03-10T07:29:02.854Z,100.00
2023-03-10T07:31:31.300Z,100.00
2023-03-10T07:33:59.571Z,100.00
2023-03-10T07:44:55.301Z,100.00
2023-03-10T07:47:23.608Z,100.00
2023-03-10T07:49:52.002Z,100.00
2023-03-10T07:52:20.481Z,100.00
2023-03-10T07:54:48.947Z,100.00
2023-03-10T07:57:17.398Z,100.00
2023-03-10T07:59:46.043Z,100.00
2023-03-10T08:02:15.268Z,100.00
2023-03-10T08:04:43.820Z,100.00
2023-03-10T08:07:12.865Z,100.00
2023-03-10T08:09:41.499Z,100.00
2023-03-10T08:12:10.244Z,100.00
2023-03-10T08:14:39.110Z,100.00
2023-03-10T08:17:07.609Z,100.00
2023-03-10T08:19:38.099Z,100.00
2023-03-10T08:22:06.531Z,100.00
2023-03-10T08:24:36.629Z,100.00
2023-03-10T08:27:05.922Z,100.00
2023-03-10T08:29:34.289Z,100.00
2023-03-10T08:32:02.679Z,100.00
2023-03-10T08:34:36.731Z,100.00
2023-03-10T08:37:05.785Z,100.00
2023-03-10T08:39:34.225Z,100.00
2023-03-10T08:42:02.649Z,100.00
2023-03-10T08:44:31.132Z,100.00
2023-03-10T08:46:59.597Z,100.00
2023-03-10T08:49:28.446Z,100.00
2023-03-10T08:51:57.078Z,100.00
2023-03-10T08:54:25.978Z,100.00
2023-03-10T08:56:54.332Z,100.00
2023-03-10T08:59:22.709Z,100.00
2023-03-10T09:01:51.050Z,100.00
2023-03-10T09:04:19.485Z,100.00
2023-03-10T09:06:47.883Z,100.00
2023-03-10T09:09:16.916Z,99.05
2023-03-10T09:11:45.684Z,98.33
2023-03-10T09:14:16.945Z,97.04
2023-03-10T09:16:46.498Z,96.79
2023-03-10T09:19:14.933Z,95.43
2023-03-10T09:21:43.479Z,93.43
2023-03-10T09:24:11.804Z,93.71
2023-03-10T09:26:41.330Z,93.47
2023-03-10T09:29:12.127Z,93.22
2023-03-10T09:31:40.784Z,93.09
2023-03-10T09:34:11.936Z,91.46
2023-03-10T09:36:40.447Z,91.26
2023-03-10T09:39:08.881Z,92.30
2023-03-10T09:41:51.698Z,91.89
2023-03-10T09:44:35.102Z,91.31
2023-03-10T09:47:09.751Z,91.21
2023-03-10T09:49:47.289Z,91.15
2023-03-10T09:52:46.843Z,91.40
2023-03-10T09:55:47.721Z,91.84
2023-03-10T09:58:41.501Z,92.18
2023-03-10T10:01:23.872Z,91.92
2023-03-10T10:04:02.993Z,91.93
2023-03-10T10:06:37.120Z,92.01
2023-03-10T10:09:11.713Z,92.06
2023-03-10T10:11:40.722Z,92.26
2023-03-10T10:14:34.069Z,91.96
2023-03-10T10:18:18.253Z,91.80
2023-03-10T10:21:10.560Z,91.85
2023-03-10T10:23:53.030Z,91.88
2023-03-10T10:26:26.932Z,91.99
2023-03-10T10:29:04.329Z,92.07
2023-03-10T10:31:36.071Z,91.57
2023-03-10T10:34:26.164Z,91.29
2023-03-10T10:37:03.961Z,90.81
2023-03-10T10:39:42.782Z,91.09
2023-03-10T10:42:24.974Z,90.85
2023-03-10T10:45:19.260Z,89.73
2023-03-10T10:47:51.231Z,87.80
2023-03-10T10:50:29.423Z,88.29
2023-03-10T10:53:16.682Z,88.83
2023-03-10T10:55:47.071Z,87.51
2023-03-10T10:58:38.194Z,87.18
2023-03-10T11:01:13.087Z,86.28
2023-03-10T11:03:50.829Z,86.88
2023-03-10T11:06:29.120Z,87.13
2023-03-10T11:09:14.683Z,86.37
2023-03-10T11:12:11.779Z,85.39
2023-03-10T11:15:10.627Z,84.77
2023-03-10T11:18:09.171Z,86.58
2023-03-10T11:21:10.869Z,88.10
2023-03-10T11:24:13.146Z,87.89
2023-03-10T11:26:58.808Z,86.40
2023-03-10T11:30:00.727Z,84.81
2023-03-10T11:32:56.278Z,84.09
2023-03-10T11:35:43.725Z,82.18
2023-03-10T11:38:15.962Z,80.88
2023-03-10T11:40:57.659Z,82.18
2023-03-10T11:43:41.463Z,82.73
2023-03-10T11:46:36.522Z,82.80
2023-03-10T11:49:12.900Z,82.87
2023-03-10T11:51:50.896Z,83.09
2023-03-10T11:54:35.109Z,83.48
2023-03-10T11:57:20.254Z,83.73
2023-03-10T11:59:57.752Z,83.78
2023-03-10T12:02:58.797Z,83.95
2023-03-10T12:05:33.147Z,84.28
2023-03-10T12:08:05.102Z,84.33
2023-03-10T12:10:39.342Z,84.36
2023-03-10T12:13:21.301Z,84.52
2023-03-10T12:15:52.633Z,85.13
2023-03-10T12:18:21.548Z,85.61
2023-03-10T12:21:13.653Z,85.67
2023-03-10T12:23:46.463Z,85.34
2023-03-10T12:26:38.268Z,85.64
2023-03-10T12:29:24.127Z,86.50
2023-03-10T12:31:55.320Z,85.68
2023-03-10T12:34:29.092Z,84.53
2023-03-10T12:37:21.771Z,84.04
2023-03-10T12:39:51.101Z,83.19
2023-03-10T12:42:32.383Z,82.89
2023-03-10T12:45:33.835Z,82.22
2023-03-10T12:48:17.030Z,81.05
2023-03-10T12:50:58.335Z,80.79
2023-03-10T12:53:45.485Z,79.00
2023-03-10T12:56:13.883Z,78.74
2023-03-10T12:58:53.012Z,78.76
2023-03-10T13:01:27.842Z,78.57
2023-03-10T13:03:57.066Z,78.82
2023-03-10T13:06:35.536Z,79.04
2023-03-10T13:09:43.602Z,78.91
2023-03-10T13:12:21.638Z,79.59
2023-03-10T13:14:57.780Z,80.16
2023-03-10T13:17:32.889Z,79.80
2023-03-10T13:20:14.841Z,79.46
2023-03-10T13:22:58.998Z,79.24
2023-03-10T13:25:27.541Z,78.87
2023-03-10T13:27:57.702Z,78.99
2023-03-10T13:30:28.014Z,78.28
2023-03-10T13:33:02.671Z,77.83
2023-03-10T13:35:41.893Z,77.29
2023-03-10T13:38:17.856Z,76.72
2023-03-10T13:41:03.780Z,76.81
2023-03-10T13:43:46.301Z,76.67
2023-03-10T13:46:25.001Z,76.57
2023-03-10T13:48:55.467Z,76.55
2023-03-10T13:51:33.197Z,77.22
2023-03-10T13:54:19.760Z,77.59
2023-03-10T13:56:52.220Z,77.03
2023-03-10T13:59:27.358Z,77.10
2023-03-10T14:01:58.198Z,77.41
2023-03-10T14:04:45.150Z,77.74
2023-03-10T14:07:23.943Z,77.33
2023-03-10T14:10:04.734Z,77.33
2023-03-10T14:12:54.463Z,77.28
2023-03-10T14:15:32.366Z,77.14
2023-03-10T14:18:06.534Z,77.21
2023-03-10T14:20:37.483Z,77.63
2023-03-10T14:23:18.055Z,77.96
2023-03-10T14:25:48.783Z,77.36
2023-03-10T14:28:33.393Z,77.77
2023-03-10T14:31:02.748Z,77.49
2023-03-10T14:33:31.291Z,77.63
2023-03-10T14:35:59.754Z,77.90
2023-03-10T14:38:28.135Z,78.14
2023-03-10T14:40:56.732Z,78.27
2023-03-10T14:43:28.304Z,78.29
2023-03-10T14:46:01.075Z,78.53
2023-03-10T14:48:35.244Z,78.57
2023-03-10T14:51:03.809Z,78.49
2023-03-10T14:53:33.545Z,78.74
2023-03-10T14:56:02.643Z,78.81
2023-03-10T14:58:38.638Z,78.88
2023-03-10T15:01:07.115Z,78.78
2023-03-10T15:03:35.525Z,78.77
2023-03-10T15:06:04.212Z,78.85
2023-03-10T15:08:32.620Z,79.17
2023-03-10T15:11:01.886Z,79.20
2023-03-10T15:13:30.247Z,78.71
2023-03-10T15:15:59.475Z,78.23
2023-03-10T15:18:28.123Z,77.79
2023-03-10T15:20:59.149Z,76.87
2023-03-10T15:23:29.037Z,76.62
2023-03-10T15:25:59.000Z,77.16
2023-03-10T15:28:27.422Z,77.29
2023-03-10T15:30:55.884Z,77.68
2023-03-10T15:33:24.332Z,77.80
2023-03-10T15:35:53.375Z,77.86
2023-03-10T15:38:22.201Z,77.98
2023-03-10T15:40:50.579Z,77.91
2023-03-10T15:43:19.000Z,78.08
2023-03-10T15:45:49.228Z,77.95
2023-03-10T15:48:18.797Z,78.00
2023-03-10T15:50:47.352Z,77.93
2023-03-10T15:53:15.941Z,77.97
2023-03-10T15:55:44.480Z,78.18
2023-03-10T15:58:13.149Z,78.19
2023-03-10T16:00:43.918Z,78.31
2023-03-10T16:03:17.764Z,78.43
2023-03-10T16:05:48.473Z,78.45
2023-03-10T16:08:19.330Z,78.68
2023-03-10T16:10:53.254Z,78.87
2023-03-10T16:13:23.979Z,78.97
2023-03-10T16:15:52.881Z,79.05
2023-03-10T16:18:21.485Z,79.08
2023-03-10T16:21:07.992Z,79.19
2023-03-10T16:23:36.428Z,79.33
2023-03-10T16:26:21.197Z,79.39
2023-03-10T16:28:53.081Z,79.42
2023-03-10T16:31:24.813Z,79.80
2023-03-10T16:33:54.989Z,79.83
2023-03-10T16:36:26.731Z,79.94
2023-03-10T16:38:55.569Z,80.06
2023-03-10T16:41:24.252Z,80.24
2023-03-10T16:43:54.686Z,80.44
2023-03-10T16:46:26.366Z,80.58
2023-03-10T16:48:55.878Z,80.75
2023-03-10T16:51:31.648Z,80.79
2023-03-10T16:54:03.645Z,80.98
2023-03-10T16:56:35.012Z,80.91
2023-03-10T16:59:04.117Z,81.08
2023-03-10T17:01:32.698Z,81.22
2023-03-10T17:04:01.279Z,81.36
2023-03-10T17:06:32.956Z,81.31
2023-03-10T17:09:02.277Z,81.45
2023-03-10T17:11:35.536Z,81.58
2023-03-10T17:14:08.615Z,81.51
2023-03-10T17:16:38.399Z,81.76
2023-03-10T17:19:12.127Z,81.78
2023-03-10T17:21:46.029Z,81.81
2023-03-10T17:24:20.438Z,81.94
2023-03-10T17:26:48.996Z,82.19
2023-03-10T17:29:17.486Z,82.33
2023-03-10T17:31:50.264Z,82.54
2023-03-10T17:34:19.900Z,82.82
2023-03-10T17:36:51.444Z,84.59
2023-03-10T17:39:22.529Z,86.67
2023-03-10T17:41:51.311Z,88.16
2023-03-10T17:44:19.733Z,89.00
2023-03-10T17:46:48.377Z,90.89
2023-03-10T17:49:18.133Z,91.22
2023-03-10T17:51:47.339Z,90.75
2023-03-10T17:54:21.054Z,91.50
2023-03-10T17:56:51.150Z,91.94
2023-03-10T17:59:20.423Z,92.52
2023-03-10T18:01:49.964Z,92.75
2023-03-10T18:04:18.360Z,93.23
2023-03-10T18:06:46.813Z,93.91
2023-03-10T18:09:15.437Z,94.49
2023-03-10T18:11:43.873Z,94.75
2023-03-10T18:14:12.236Z,95.26
2023-03-10T18:16:41.179Z,95.52
2023-03-10T18:19:11.172Z,95.92
2023-03-10T18:21:39.907Z,96.40
2023-03-10T18:24:11.812Z,96.42
2023-03-10T18:26:43.481Z,96.52
2023-03-10T18:29:13.378Z,96.61
2023-03-10T18:31:42.401Z,96.92
2023-03-10T18:34:11.122Z,96.98
2023-03-10T18:36:40.172Z,96.89
2023-03-10T18:39:08.595Z,97.00
2023-03-10T18:41:37.261Z,97.13
2023-03-10T18:44:05.779Z,97.17
2023-03-10T18:46:34.232Z,97.53
2023-03-10T18:49:02.867Z,97.59
2023-03-10T18:51:31.274Z,97.82
2023-03-10T18:53:59.790Z,97.82
2023-03-10T18:56:29.222Z,97.73
2023-03-10T18:58:57.763Z,97.92
2023-03-10T19:01:27.206Z,97.65
2023-03-10T19:03:56.035Z,97.83
2023-03-10T19:06:31.700Z,97.79
2023-03-10T19:09:04.539Z,97.82
2023-03-10T19:11:38.134Z,97.80
2023-03-10T19:14:07.224Z,97.80
2023-03-10T19:16:35.784Z,97.83
2023-03-10T19:19:04.123Z,97.70
2023-03-10T19:21:36.287Z,97.84
2023-03-10T19:24:05.757Z,97.65
2023-03-10T19:26:34.136Z,97.61
2023-03-10T19:29:02.544Z,97.34
2023-03-10T19:31:31.128Z,97.38
2023-03-10T19:33:59.613Z,97.42
2023-03-10T19:36:29.573Z,97.51
2023-03-10T19:38:58.180Z,97.61
2023-03-10T19:41:26.807Z,97.60
2023-03-10T19:43:55.274Z,97.64
2023-03-10T19:46:23.707Z,97.83
2023-03-10T19:48:52.104Z,98.12
2023-03-10T19:51:27.628Z,98.31
2023-03-10T19:53:58.039Z,98.37
2023-03-10T19:56:26.576Z,98.57
2023-03-10T19:58:55.663Z,98.81
2023-03-10T20:01:26.652Z,98.92
2023-03-10T20:03:59.860Z,99.15
2023-03-10T20:06:29.368Z,99.22
2023-03-10T20:08:57.707Z,99.21
2023-03-10T20:11:26.399Z,99.19
2023-03-10T20:13:55.231Z,99.30
2023-03-10T20:16:27.867Z,99.44
2023-03-10T20:18:56.517Z,99.54
2023-03-10T20:21:26.112Z,99.65
2023-03-10T20:23:56.203Z,99.76
2023-03-10T20:26:25.405Z,99.91
2023-03-10T20:28:53.857Z,99.99
2023-03-10T20:31:23.629Z,100.00
2023-03-10T20:33:52.327Z,100.00
2023-03-10T20:36:20.714Z,100.00
2023-03-10T20:38:49.241Z,100.00
2023-03-10T20:41:19.502Z,100.00
2023-03-10T20:43:48.605Z,99.93
2023-03-10T20:46:22.602Z,99.98
2023-03-10T20:48:51.635Z,100.00
2023-03-10T20:51:22.551Z,100.00
2023-03-10T20:53:52.020Z,100.00
2023-03-10T20:56:20.597Z,100.00
2023-03-10T20:58:49.011Z,100.00
2023-03-10T21:01:21.475Z,100.00
2023-03-10T21:03:54.525Z,100.00
2023-03-10T21:06:25.378Z,100.00
2023-03-10T21:08:54.173Z,100.00
2023-03-10T21:11:22.651Z,100.00
2023-03-10T21:13:51.884Z,100.00
2023-03-10T21:16:21.038Z,100.00
2023-03-10T21:18:49.841Z,100.00
2023-03-10T21:21:19.059Z,100.00
2023-03-10T21:23:47.477Z,100.00
2023-03-10T21:26:20.613Z,100.00
2023-03-10T21:28:49.968Z,100.00
2023-03-10T21:31:18.557Z,100.00
2023-03-10T21:33:48.544Z,100.00
2023-03-10T21:36:21.739Z,100.00
2023-03-10T21:38:52.002Z,100.00
2023-03-10T21:41:27.358Z,100.00
2023-03-10T21:43:57.849Z,100.00
2023-03-10T21:46:28.013Z,100.00
2023-03-10T21:48:57.432Z,100.00
2023-03-10T21:51:26.503Z,100.00
2023-03-10T21:53:55.432Z,100.00
2023-03-10T21:56:26.079Z,100.00
2023-03-10T21:58:56.882Z,100.00
2023-03-10T22:01:26.553Z,100.00
2023-03-10T22:03:56.972Z,100.00
2023-03-10T22:06:25.557Z,100.00
2023-03-10T22:08:53.924Z,100.00
2023-03-10T22:11:22.354Z,100.00
2023-03-10T22:13:53.054Z,100.00
2023-03-10T22:16:21.969Z,100.00
2023-03-10T22:18:51.391Z,100.00
2023-03-10T22:21:19.793Z,100.00
2023-03-10T22:23:48.120Z,100.00
2023-03-10T22:26:16.734Z,100.00
2023-03-10T22:28:45.059Z,100.00
2023-03-10T22:31:13.489Z,100.00
2023-03-10T22:33:42.562Z,100.00
2023-03-10T22:36:13.893Z,100.00
2023-03-10T22:38:43.150Z,100.00
2023-03-10T22:41:12.815Z,100.00
2023-03-10T22:43:42.165Z,100.00
2023-03-10T22:46:13.797Z,100.00
2023-03-10T22:48:43.808Z,100.00
2023-03-10T22:51:16.541Z,100.00
2023-03-10T22:53:48.578Z,100.00
2023-03-10T22:56:16.913Z,100.00
2023-03-10T22:58:45.250Z,100.00
2023-03-10T23:01:14.165Z,100.00
2023-03-10T23:03:42.610Z,100.00
2023-03-10T23:06:13.682Z,100.00
2023-03-10T23:08:43.662Z,100.00
2023-03-10T23:11:15.906Z,100.00
2023-03-10T23:13:44.341Z,100.00
2023-03-10T23:16:13.009Z,100.00
2023-03-10T23:18:41.447Z,100.00
2023-03-10T23:21:10.069Z,100.00
2023-03-10T23:23:39.376Z,100.00
2023-03-10T23:26:07.769Z,100.00
2023-03-10T23:28:36.599Z,100.00
2023-03-10T23:31:06.052Z,100.00
2023-03-10T23:33:34.888Z,100.00
2023-03-10T23:36:03.728Z,100.00
2023-03-10T23:38:32.188Z,100.00
2023-03-10T23:41:00.578Z,100.00
2023-03-10T23:43:29.006Z,100.00
2023-03-10T23:45:57.488Z,100.00
2023-03-10T23:48:25.806Z,100.00
2023-03-10T23:50:54.262Z,100.00
2023-03-10T23:53:22.962Z,100.00
2023-03-10T23:55:51.328Z,100.00
2023-03-10T23:58:19.907Z,100.00
